createdAt,value
2022-11-08T00:01:35.562Z,1.40
2022-11-08T00:06:40.499Z,1.80
2022-11-08T00:12:01.854Z,1.30
2022-11-08T00:16:48.112Z,1.60
2022-11-08T00:21:36.200Z,1.30
2022-11-08T00:26:42.673Z,1.20
2022-11-08T00:31:59.596Z,1.63
2022-11-08T00:36:49.633Z,1.00
2022-11-08T00:41:35.423Z,1.40
2022-11-08T00:46:25.993Z,1.50
2022-11-08T00:51:13.885Z,1.20
2022-11-08T00:56:13.504Z,1.03
2022-11-08T01:01:51.189Z,1.67
2022-11-08T01:06:45.991Z,1.20
2022-11-08T01:11:46.580Z,1.40
2022-11-08T01:16:32.371Z,1.23
2022-11-08T01:21:20.058Z,1.57
2022-11-08T01:26:22.543Z,1.63
2022-11-08T01:31:46.476Z,1.57
2022-11-08T01:36:49.300Z,1.30
2022-11-08T01:42:07.842Z,1.43
2022-11-08T01:47:08.474Z,1.37
2022-11-08T01:52:19.729Z,1.17
2022-11-08T01:57:09.444Z,1.67
2022-11-08T02:01:57.963Z,1.37
2022-11-08T02:07:12.765Z,1.17
2022-11-08T02:12:01.017Z,1.60
2022-11-08T02:17:20.515Z,1.33
2022-11-08T02:27:30.492Z,1.40
2022-11-08T02:32:21.093Z,1.60
2022-11-08T02:37:19.527Z,1.17
2022-11-08T02:42:43.645Z,1.00
2022-11-08T02:47:43.669Z,1.00
2022-11-08T02:52:30.559Z,1.20
2022-11-08T02:57:40.961Z,1.23
2022-11-08T03:02:39.866Z,1.13
2022-11-08T03:07:27.730Z,1.50
2022-11-08T03:12:14.720Z,1.80
2022-11-08T03:17:09.444Z,1.40
2022-11-08T03:21:53.197Z,1.90
2022-11-08T03:26:42.045Z,1.50
2022-11-08T03:31:33.361Z,1.10
2022-11-08T03:36:30.160Z,1.33
2022-11-08T03:41:57.214Z,1.30
2022-11-08T03:46:41.144Z,1.30
2022-11-08T03:51:29.452Z,1.80
2022-11-08T03:56:15.073Z,1.03
2022-11-08T04:01:05.524Z,1.37
2022-11-08T04:05:52.156Z,1.83
2022-11-08T04:10:41.261Z,1.37
2022-11-08T04:15:26.826Z,1.40
2022-11-08T04:20:52.935Z,1.17
2022-11-08T04:25:36.846Z,1.30
2022-11-08T04:30:24.736Z,1.20
2022-11-08T04:35:12.143Z,1.30
2022-11-08T04:40:01.342Z,1.50
2022-11-08T04:44:49.929Z,1.30
2022-11-08T04:49:39.746Z,1.23
2022-11-08T04:54:24.692Z,1.27
2022-11-08T04:59:12.308Z,1.50
2022-11-08T05:03:59.937Z,1.60
2022-11-08T05:09:18.393Z,1.73
2022-11-08T05:14:08.970Z,2.07
2022-11-08T05:18:58.395Z,1.60
2022-11-08T05:23:44.513Z,1.93
2022-11-08T05:28:36.105Z,2.60
2022-11-08T05:33:35.172Z,2.57
2022-11-08T05:38:27.774Z,1.97
2022-11-08T05:43:11.984Z,2.43
2022-11-08T05:48:03.918Z,2.47
2022-11-08T05:52:47.801Z,1.73
2022-11-08T05:57:34.596Z,2.07
2022-11-08T06:02:27.446Z,3.20
2022-11-08T06:07:12.708Z,3.50
2022-11-08T06:12:00.781Z,3.10
2022-11-08T06:16:48.745Z,2.40
2022-11-08T06:21:36.994Z,2.10
2022-11-08T06:26:25.985Z,2.17
2022-11-08T06:31:10.865Z,2.30
2022-11-08T06:36:01.127Z,2.27
2022-11-08T06:40:47.889Z,2.40
2022-11-08T06:45:37.784Z,2.10
2022-11-08T06:50:24.859Z,2.50
2022-11-08T06:55:12.957Z,2.20
2022-11-08T07:00:00.889Z,2.33
2022-11-08T07:04:49.309Z,1.93
2022-11-08T07:09:37.014Z,1.67
2022-11-08T07:14:23.871Z,1.70
2022-11-08T07:19:11.012Z,1.83
2022-11-08T07:24:03.917Z,1.57
2022-11-08T07:28:47.595Z,2.10
2022-11-08T07:33:35.270Z,1.73
2022-11-08T07:38:25.269Z,1.20
2022-11-08T07:43:13.326Z,1.60
2022-11-08T07:48:04.307Z,1.90
2022-11-08T07:53:06.126Z,1.77
2022-11-08T07:57:56.946Z,1.93
2022-11-08T08:02:42.538Z,1.80
2022-11-08T08:07:27.494Z,1.83
2022-11-08T08:12:14.592Z,2.10
2022-11-08T08:17:23.534Z,1.73
2022-11-08T08:22:08.954Z,2.07
2022-11-08T08:26:56.259Z,2.07
2022-11-08T08:31:43.510Z,1.90
2022-11-08T08:36:36.380Z,2.00
2022-11-08T08:41:21.452Z,5.30
2022-11-08T08:46:08.415Z,7.00
2022-11-08T08:50:55.299Z,3.87
2022-11-08T08:55:43.380Z,3.20
2022-11-08T09:06:02.628Z,3.83
2022-11-08T09:10:56.488Z,3.30
2022-11-08T09:15:44.023Z,4.03
2022-11-08T09:20:34.721Z,3.83
2022-11-08T09:25:34.272Z,3.63
2022-11-08T09:30:45.374Z,4.27
2022-11-08T09:35:29.142Z,4.30
2022-11-08T09:40:18.527Z,4.00
2022-11-08T09:45:25.908Z,4.23
2022-11-08T09:51:11.630Z,4.43
2022-11-08T09:56:31.001Z,4.33
2022-11-08T10:01:25.991Z,5.03
2022-11-08T10:07:02.693Z,4.73
2022-11-08T10:12:00.446Z,4.57
2022-11-08T10:17:02.250Z,4.33
2022-11-08T10:22:00.885Z,4.37
2022-11-08T10:27:11.075Z,4.43
2022-11-08T10:32:15.344Z,4.30
2022-11-08T10:37:19.267Z,3.97
2022-11-08T10:42:11.661Z,4.17
2022-11-08T10:47:01.010Z,2.67
2022-11-08T10:51:45.957Z,1.20
2022-11-08T10:56:45.364Z,0.90
2022-11-08T11:01:40.607Z,1.10
2022-11-08T11:06:42.316Z,1.30
2022-11-08T11:11:45.911Z,1.00
2022-11-08T11:16:31.962Z,1.13
2022-11-08T11:21:20.175Z,0.93
2022-11-08T11:26:08.211Z,1.00
2022-11-08T11:31:15.208Z,0.80
2022-11-08T11:36:06.976Z,1.97
2022-11-08T11:41:04.656Z,1.20
2022-11-08T11:45:56.110Z,0.90
2022-11-08T11:50:42.996Z,1.20
2022-11-08T11:55:42.145Z,1.17
2022-11-08T12:00:49.704Z,1.27
2022-11-08T12:06:06.328Z,1.23
2022-11-08T12:11:08.623Z,1.00
2022-11-08T12:16:01.050Z,1.00
2022-11-08T12:20:59.647Z,1.27
2022-11-08T12:25:54.812Z,1.17
2022-11-08T12:30:53.906Z,1.50
2022-11-08T12:36:05.370Z,1.13
2022-11-08T12:41:03.445Z,1.00
2022-11-08T12:46:08.154Z,1.30
2022-11-08T12:51:07.806Z,1.40
2022-11-08T12:56:03.657Z,1.17
2022-11-08T13:00:52.398Z,0.90
2022-11-08T13:05:40.443Z,1.23
2022-11-08T13:10:43.392Z,1.37
2022-11-08T13:15:28.243Z,1.57
2022-11-08T13:20:44.904Z,1.27
2022-11-08T13:25:39.233Z,1.10
2022-11-08T13:30:40.724Z,1.00
2022-11-08T13:35:39.423Z,1.37
2022-11-08T13:41:01.853Z,1.20
2022-11-08T13:45:53.046Z,1.13
2022-11-08T13:50:53.668Z,1.30
2022-11-08T13:55:47.438Z,1.13
2022-11-08T14:00:45.967Z,1.30
2022-11-08T14:05:50.902Z,1.60
2022-11-08T14:10:53.389Z,1.93
2022-11-08T14:15:47.489Z,2.60
2022-11-08T14:20:37.496Z,2.40
2022-11-08T14:25:34.909Z,1.80
2022-11-08T14:30:28.198Z,1.50
2022-11-08T14:35:26.849Z,2.00
2022-11-08T14:40:21.253Z,1.50
2022-11-08T14:45:05.320Z,1.60
2022-11-08T14:49:51.818Z,2.00
2022-11-08T14:54:41.189Z,2.07
2022-11-08T14:59:27.495Z,7.97
2022-11-08T15:04:18.825Z,5.40
2022-11-08T15:09:03.636Z,3.30
2022-11-08T15:13:53.351Z,8.97
2022-11-08T15:18:41.333Z,6.47
2022-11-08T15:23:40.533Z,4.43
2022-11-08T15:28:32.306Z,4.87
2022-11-08T15:33:37.690Z,3.33
2022-11-08T15:38:40.422Z,2.97
2022-11-08T15:43:43.107Z,1.90
2022-11-08T15:48:29.740Z,8.13
2022-11-08T15:53:19.639Z,2.67
2022-11-08T15:58:23.962Z,4.40
2022-11-08T16:03:13.484Z,2.57
2022-11-08T16:08:02.079Z,3.57
2022-11-08T16:12:49.402Z,4.30
2022-11-08T16:17:35.892Z,3.60
2022-11-08T16:22:24.982Z,3.07
2022-11-08T16:27:12.092Z,2.70
2022-11-08T16:32:01.387Z,2.60
2022-11-08T16:36:50.094Z,4.40
2022-11-08T16:41:40.119Z,3.23
2022-11-08T16:46:39.595Z,3.20
2022-11-08T16:51:29.088Z,7.60
2022-11-08T16:56:15.933Z,4.70
2022-11-08T17:01:10.468Z,15.33
2022-11-08T17:06:07.411Z,4.43
2022-11-08T17:10:55.895Z,3.53
2022-11-08T17:15:44.061Z,3.70
2022-11-08T17:20:30.537Z,4.23
2022-11-08T17:25:24.976Z,5.87
2022-11-08T17:30:09.833Z,5.77
2022-11-08T17:34:55.028Z,5.60
2022-11-08T17:39:47.833Z,6.23
2022-11-08T17:44:33.524Z,6.67
2022-11-08T17:49:19.166Z,4.50
2022-11-08T17:54:06.174Z,4.53
2022-11-08T17:58:54.554Z,4.87
2022-11-08T18:03:48.513Z,3.90
2022-11-08T18:08:33.236Z,3.77
2022-11-08T18:13:20.278Z,3.20
2022-11-08T18:18:07.431Z,3.80
2022-11-08T18:22:54.709Z,5.97
2022-11-08T18:27:47.315Z,5.73
2022-11-08T18:32:30.813Z,3.67
2022-11-08T18:37:18.111Z,3.73
2022-11-08T18:42:10.325Z,4.60
2022-11-08T18:46:56.621Z,3.73
2022-11-08T18:51:42.893Z,3.10
2022-11-08T18:56:31.327Z,3.07
2022-11-08T19:01:25.582Z,3.70
2022-11-08T19:06:09.459Z,3.70
2022-11-08T19:10:56.237Z,3.20
2022-11-08T19:15:42.780Z,2.80
2022-11-08T19:20:31.667Z,2.93
2022-11-08T19:25:19.156Z,3.17
2022-11-08T19:30:07.025Z,3.20
2022-11-08T19:34:52.653Z,3.70
2022-11-08T19:39:44.778Z,8.30
2022-11-08T19:44:31.905Z,4.10
2022-11-08T19:49:25.385Z,3.80
2022-11-08T19:54:13.186Z,3.03
2022-11-08T19:58:58.734Z,3.17
2022-11-08T20:03:42.319Z,3.10
2022-11-08T20:08:32.569Z,2.63
2022-11-08T20:13:19.262Z,3.00
2022-11-08T20:18:10.523Z,2.87
2022-11-08T20:22:54.432Z,2.30
2022-11-08T20:27:47.583Z,3.67
2022-11-08T20:32:35.196Z,3.90
2022-11-08T20:37:20.348Z,2.60
2022-11-08T20:42:07.466Z,4.67
2022-11-08T20:47:13.567Z,2.47
2022-11-08T20:52:02.406Z,4.90
2022-11-08T20:56:48.158Z,4.97
2022-11-08T21:01:34.591Z,1.90
2022-11-08T21:06:39.309Z,1.70
2022-11-08T21:11:29.909Z,2.03
2022-11-08T21:16:29.901Z,1.57
2022-11-08T21:21:22.470Z,2.17
2022-11-08T21:26:07.591Z,1.40
2022-11-08T21:31:00.326Z,1.77
2022-11-08T21:35:45.349Z,1.70
2022-11-08T21:40:34.333Z,1.83
2022-11-08T21:45:23.095Z,2.00
2022-11-08T21:50:09.308Z,1.43
2022-11-08T21:54:57.261Z,1.33
2022-11-08T21:59:46.104Z,1.70
2022-11-08T22:04:32.968Z,1.80
2022-11-08T22:09:20.871Z,1.90
2022-11-08T22:14:09.207Z,2.23
2022-11-08T22:19:28.951Z,2.83
2022-11-08T22:24:21.783Z,2.20
2022-11-08T22:29:25.495Z,2.17
2022-11-08T22:34:10.127Z,2.10
2022-11-08T22:38:56.890Z,2.03
2022-11-08T22:43:46.761Z,1.83
2022-11-08T22:48:34.864Z,2.00
2022-11-08T22:53:21.767Z,2.00
2022-11-08T22:58:07.047Z,2.10
2022-11-08T23:02:56.364Z,2.07
2022-11-08T23:07:46.024Z,2.00
2022-11-08T23:13:04.191Z,2.47
2022-11-08T23:17:57.915Z,2.20
2022-11-08T23:23:00.336Z,2.53
2022-11-08T23:28:02.812Z,2.37
2022-11-08T23:32:52.062Z,2.70
2022-11-08T23:37:43.463Z,2.57
2022-11-08T23:42:51.108Z,2.63
2022-11-08T23:47:45.496Z,3.40
2022-11-08T23:52:36.366Z,3.43
2022-11-08T23:57:41.739Z,3.80
